sensor_id;sensor_type;location;lat;lon;timestamp;temperature;humidity
24164;DHT22;12319;49.204;8.116;2022-09-09T00:04:32;17.30;86.10
24164;DHT22;12319;49.204;8.116;2022-09-09T00:07:19;17.30;87.60
24164;DHT22;12319;49.204;8.116;2022-09-09T00:15:19;17.30;86.70
24164;DHT22;12319;49.204;8.116;2022-09-09T00:17:55;17.50;86.90
24164;DHT22;12319;49.204;8.116;2022-09-09T00:20:51;17.50;87.20
24164;DHT22;12319;49.204;8.116;2022-09-09T00:23:22;17.40;87.70
24164;DHT22;12319;49.204;8.116;2022-09-09T00:28:26;17.40;87.20
24164;DHT22;12319;49.204;8.116;2022-09-09T00:30:52;17.40;86.90
24164;DHT22;12319;49.204;8.116;2022-09-09T00:33:20;17.50;86.70
24164;DHT22;12319;49.204;8.116;2022-09-09T00:35:58;17.50;86.70
24164;DHT22;12319;49.204;8.116;2022-09-09T00:41:27;17.40;86.20
24164;DHT22;12319;49.204;8.116;2022-09-09T00:44:00;17.30;87.20
24164;DHT22;12319;49.204;8.116;2022-09-09T00:54:59;17.20;87.90
24164;DHT22;12319;49.204;8.116;2022-09-09T00:57:30;17.20;87.80
24164;DHT22;12319;49.204;8.116;2022-09-09T01:17:15;17.30;88.30
24164;DHT22;12319;49.204;8.116;2022-09-09T01:25:26;17.30;88.80
24164;DHT22;12319;49.204;8.116;2022-09-09T01:28:01;17.30;88.40
24164;DHT22;12319;49.204;8.116;2022-09-09T01:30:29;17.30;88.00
24164;DHT22;12319;49.204;8.116;2022-09-09T01:32:56;17.30;87.70
24164;DHT22;12319;49.204;8.116;2022-09-09T01:35:50;17.30;88.00
24164;DHT22;12319;49.204;8.116;2022-09-09T01:38:20;17.30;89.30
24164;DHT22;12319;49.204;8.116;2022-09-09T01:40:46;17.30;88.00
24164;DHT22;12319;49.204;8.116;2022-09-09T01:43:11;17.30;87.90
24164;DHT22;12319;49.204;8.116;2022-09-09T01:45:39;17.30;87.90
24164;DHT22;12319;49.204;8.116;2022-09-09T01:48:06;17.30;88.00
24164;DHT22;12319;49.204;8.116;2022-09-09T01:50:31;17.30;88.10
24164;DHT22;12319;49.204;8.116;2022-09-09T01:52:58;17.20;87.90
24164;DHT22;12319;49.204;8.116;2022-09-09T01:55:39;17.20;88.30
24164;DHT22;12319;49.204;8.116;2022-09-09T02:03:52;17.10;89.30
24164;DHT22;12319;49.204;8.116;2022-09-09T02:08:49;17.10;89.10
24164;DHT22;12319;49.204;8.116;2022-09-09T02:11:17;17.10;89.60
24164;DHT22;12319;49.204;8.116;2022-09-09T02:13:45;17.10;89.70
24164;DHT22;12319;49.204;8.116;2022-09-09T02:16:28;17.30;89.70
24164;DHT22;12319;49.204;8.116;2022-09-09T02:21:34;17.10;90.20
24164;DHT22;12319;49.204;8.116;2022-09-09T02:24:03;17.10;89.50
24164;DHT22;12319;49.204;8.116;2022-09-09T02:26:31;17.00;89.60
24164;DHT22;12319;49.204;8.116;2022-09-09T02:29:00;17.10;89.90
24164;DHT22;12319;49.204;8.116;2022-09-09T02:31:26;17.10;89.80
24164;DHT22;12319;49.204;8.116;2022-09-09T02:33:57;17.10;89.80
24164;DHT22;12319;49.204;8.116;2022-09-09T02:36:25;17.10;90.10
24164;DHT22;12319;49.204;8.116;2022-09-09T02:38:52;17.10;90.00
24164;DHT22;12319;49.204;8.116;2022-09-09T02:41:32;17.10;90.00
24164;DHT22;12319;49.204;8.116;2022-09-09T02:43:58;17.10;90.50
24164;DHT22;12319;49.204;8.116;2022-09-09T02:47:05;17.10;90.10
24164;DHT22;12319;49.204;8.116;2022-09-09T02:52:17;17.00;90.40
24164;DHT22;12319;49.204;8.116;2022-09-09T02:54:44;16.90;90.20
24164;DHT22;12319;49.204;8.116;2022-09-09T02:59:36;16.80;90.40
24164;DHT22;12319;49.204;8.116;2022-09-09T03:02:01;17.20;90.70
24164;DHT22;12319;49.204;8.116;2022-09-09T03:04:28;16.90;90.60
24164;DHT22;12319;49.204;8.116;2022-09-09T03:06:55;16.90;90.70
24164;DHT22;12319;49.204;8.116;2022-09-09T03:09:21;16.90;90.80
24164;DHT22;12319;49.204;8.116;2022-09-09T03:11:46;16.90;90.70
24164;DHT22;12319;49.204;8.116;2022-09-09T03:14:12;17.00;90.80
24164;DHT22;12319;49.204;8.116;2022-09-09T03:16:37;17.00;90.70
24164;DHT22;12319;49.204;8.116;2022-09-09T03:19:03;16.90;90.90
24164;DHT22;12319;49.204;8.116;2022-09-09T03:21:29;16.90;90.80
24164;DHT22;12319;49.204;8.116;2022-09-09T03:23:54;16.90;90.80
24164;DHT22;12319;49.204;8.116;2022-09-09T03:26:20;16.90;90.80
24164;DHT22;12319;49.204;8.116;2022-09-09T03:28:46;17.00;90.90
24164;DHT22;12319;49.204;8.116;2022-09-09T03:31:12;16.90;90.80
24164;DHT22;12319;49.204;8.116;2022-09-09T03:33:38;16.90;90.90
24164;DHT22;12319;49.204;8.116;2022-09-09T03:36:04;16.90;90.80
24164;DHT22;12319;49.204;8.116;2022-09-09T03:38:30;16.90;90.80
24164;DHT22;12319;49.204;8.116;2022-09-09T03:40:57;16.90;90.80
24164;DHT22;12319;49.204;8.116;2022-09-09T03:43:24;16.80;90.80
24164;DHT22;12319;49.204;8.116;2022-09-09T03:45:50;16.90;90.90
24164;DHT22;12319;49.204;8.116;2022-09-09T03:48:17;16.80;90.90
24164;DHT22;12319;49.204;8.116;2022-09-09T03:50:47;16.80;91.00
24164;DHT22;12319;49.204;8.116;2022-09-09T03:53:14;16.90;91.30
24164;DHT22;12319;49.204;8.116;2022-09-09T03:55:47;16.80;91.10
24164;DHT22;12319;49.204;8.116;2022-09-09T03:58:14;16.80;91.40
24164;DHT22;12319;49.204;8.116;2022-09-09T04:00:40;16.80;91.20
24164;DHT22;12319;49.204;8.116;2022-09-09T04:03:11;16.80;91.20
24164;DHT22;12319;49.204;8.116;2022-09-09T04:05:39;16.80;91.20
24164;DHT22;12319;49.204;8.116;2022-09-09T04:08:08;16.70;91.20
24164;DHT22;12319;49.204;8.116;2022-09-09T04:10:34;16.80;91.40
24164;DHT22;12319;49.204;8.116;2022-09-09T04:13:01;16.80;91.20
24164;DHT22;12319;49.204;8.116;2022-09-09T04:15:27;16.70;91.20
24164;DHT22;12319;49.204;8.116;2022-09-09T04:17:53;16.70;91.30
24164;DHT22;12319;49.204;8.116;2022-09-09T04:20:18;16.70;91.30
24164;DHT22;12319;49.204;8.116;2022-09-09T04:22:44;16.70;91.30
24164;DHT22;12319;49.204;8.116;2022-09-09T04:25:10;16.70;91.40
24164;DHT22;12319;49.204;8.116;2022-09-09T04:27:35;16.70;91.30
24164;DHT22;12319;49.204;8.116;2022-09-09T04:30:01;16.80;91.40
24164;DHT22;12319;49.204;8.116;2022-09-09T04:32:27;16.80;91.30
24164;DHT22;12319;49.204;8.116;2022-09-09T04:34:53;16.80;91.20
24164;DHT22;12319;49.204;8.116;2022-09-09T04:37:18;16.80;91.20
24164;DHT22;12319;49.204;8.116;2022-09-09T04:39:44;16.80;91.20
24164;DHT22;12319;49.204;8.116;2022-09-09T04:42:10;16.80;91.20
24164;DHT22;12319;49.204;8.116;2022-09-09T04:44:36;16.80;91.20
24164;DHT22;12319;49.204;8.116;2022-09-09T04:47:02;16.80;91.20
24164;DHT22;12319;49.204;8.116;2022-09-09T04:49:27;16.80;91.30
24164;DHT22;12319;49.204;8.116;2022-09-09T04:51:53;16.80;91.20
24164;DHT22;12319;49.204;8.116;2022-09-09T04:54:18;16.80;91.30
24164;DHT22;12319;49.204;8.116;2022-09-09T04:56:44;16.80;91.50
24164;DHT22;12319;49.204;8.116;2022-09-09T04:59:09;16.90;91.50
24164;DHT22;12319;49.204;8.116;2022-09-09T05:01:35;16.80;91.40
24164;DHT22;12319;49.204;8.116;2022-09-09T05:04:02;16.90;91.40
24164;DHT22;12319;49.204;8.116;2022-09-09T05:06:28;16.90;91.30
24164;DHT22;12319;49.204;8.116;2022-09-09T05:08:55;16.90;91.30
24164;DHT22;12319;49.204;8.116;2022-09-09T05:11:23;16.90;91.20
24164;DHT22;12319;49.204;8.116;2022-09-09T05:13:50;16.90;91.30
24164;DHT22;12319;49.204;8.116;2022-09-09T05:16:15;16.90;91.30
24164;DHT22;12319;49.204;8.116;2022-09-09T05:18:42;16.90;91.30
24164;DHT22;12319;49.204;8.116;2022-09-09T05:21:12;16.90;91.20
24164;DHT22;12319;49.204;8.116;2022-09-09T05:23:38;16.80;91.20
24164;DHT22;12319;49.204;8.116;2022-09-09T05:26:04;16.90;91.30
24164;DHT22;12319;49.204;8.116;2022-09-09T05:28:30;16.90;91.30
24164;DHT22;12319;49.204;8.116;2022-09-09T05:31:08;16.90;91.30
24164;DHT22;12319;49.204;8.116;2022-09-09T05:33:35;17.00;91.60
24164;DHT22;12319;49.204;8.116;2022-09-09T05:36:04;17.00;91.10
24164;DHT22;12319;49.204;8.116;2022-09-09T05:38:31;17.00;91.20
24164;DHT22;12319;49.204;8.116;2022-09-09T05:40:57;17.10;91.10
24164;DHT22;12319;49.204;8.116;2022-09-09T05:43:23;17.10;91.10
24164;DHT22;12319;49.204;8.116;2022-09-09T05:45:59;17.10;91.00
24164;DHT22;12319;49.204;8.116;2022-09-09T05:48:31;17.10;91.30
24164;DHT22;12319;49.204;8.116;2022-09-09T05:50:57;17.20;91.30
24164;DHT22;12319;49.204;8.116;2022-09-09T05:53:23;17.30;91.20
24164;DHT22;12319;49.204;8.116;2022-09-09T05:55:49;17.40;91.10
24164;DHT22;12319;49.204;8.116;2022-09-09T05:58:14;17.50;91.10
24164;DHT22;12319;49.204;8.116;2022-09-09T06:00:42;17.50;90.90
24164;DHT22;12319;49.204;8.116;2022-09-09T06:03:11;17.60;90.80
24164;DHT22;12319;49.204;8.116;2022-09-09T06:05:36;17.60;90.80
24164;DHT22;12319;49.204;8.116;2022-09-09T06:08:02;17.60;90.50
24164;DHT22;12319;49.204;8.116;2022-09-09T06:10:28;17.60;90.60
24164;DHT22;12319;49.204;8.116;2022-09-09T06:12:54;17.60;90.70
24164;DHT22;12319;49.204;8.116;2022-09-09T06:15:19;17.70;90.70
24164;DHT22;12319;49.204;8.116;2022-09-09T06:17:45;17.80;90.60
24164;DHT22;12319;49.204;8.116;2022-09-09T06:20:10;17.80;90.50
24164;DHT22;12319;49.204;8.116;2022-09-09T06:22:38;17.90;90.50
24164;DHT22;12319;49.204;8.116;2022-09-09T06:25:04;17.90;90.40
24164;DHT22;12319;49.204;8.116;2022-09-09T06:27:30;18.00;90.30
24164;DHT22;12319;49.204;8.116;2022-09-09T06:29:56;18.10;90.20
24164;DHT22;12319;49.204;8.116;2022-09-09T06:32:21;18.10;90.10
24164;DHT22;12319;49.204;8.116;2022-09-09T06:34:47;18.20;90.00
24164;DHT22;12319;49.204;8.116;2022-09-09T06:37:14;18.30;90.00
24164;DHT22;12319;49.204;8.116;2022-09-09T06:39:40;18.50;90.10
24164;DHT22;12319;49.204;8.116;2022-09-09T06:42:06;18.70;90.00
24164;DHT22;12319;49.204;8.116;2022-09-09T06:44:34;18.90;89.40
24164;DHT22;12319;49.204;8.116;2022-09-09T06:46:59;19.10;88.00
24164;DHT22;12319;49.204;8.116;2022-09-09T06:49:25;19.10;87.00
24164;DHT22;12319;49.204;8.116;2022-09-09T06:51:50;19.00;86.50
24164;DHT22;12319;49.204;8.116;2022-09-09T06:54:17;19.00;86.60
24164;DHT22;12319;49.204;8.116;2022-09-09T06:56:43;19.00;86.70
24164;DHT22;12319;49.204;8.116;2022-09-09T06:59:10;19.00;86.30
24164;DHT22;12319;49.204;8.116;2022-09-09T07:01:42;19.10;86.30
24164;DHT22;12319;49.204;8.116;2022-09-09T07:04:09;19.10;86.20
24164;DHT22;12319;49.204;8.116;2022-09-09T07:06:44;19.50;87.10
24164;DHT22;12319;49.204;8.116;2022-09-09T07:09:13;19.70;85.80
24164;DHT22;12319;49.204;8.116;2022-09-09T07:11:43;19.90;84.80
24164;DHT22;12319;49.204;8.116;2022-09-09T07:14:10;19.90;84.30
24164;DHT22;12319;49.204;8.116;2022-09-09T07:16:43;20.00;83.60
24164;DHT22;12319;49.204;8.116;2022-09-09T07:19:08;20.40;83.80
24164;DHT22;12319;49.204;8.116;2022-09-09T07:21:34;21.40;83.20
24164;DHT22;12319;49.204;8.116;2022-09-09T07:24:00;23.50;83.40
24164;DHT22;12319;49.204;8.116;2022-09-09T07:26:29;25.70;77.80
24164;DHT22;12319;49.204;8.116;2022-09-09T07:28:55;27.90;70.60
24164;DHT22;12319;49.204;8.116;2022-09-09T07:31:27;28.40;67.90
24164;DHT22;12319;49.204;8.116;2022-09-09T07:33:53;27.80;64.20
24164;DHT22;12319;49.204;8.116;2022-09-09T07:36:21;26.90;63.00
24164;DHT22;12319;49.204;8.116;2022-09-09T07:38:50;25.90;62.00
24164;DHT22;12319;49.204;8.116;2022-09-09T07:41:31;26.00;65.70
24164;DHT22;12319;49.204;8.116;2022-09-09T07:44:03;27.60;62.60
24164;DHT22;12319;49.204;8.116;2022-09-09T07:46:29;28.40;64.00
24164;DHT22;12319;49.204;8.116;2022-09-09T07:48:56;30.00;63.00
24164;DHT22;12319;49.204;8.116;2022-09-09T07:51:42;30.80;59.60
24164;DHT22;12319;49.204;8.116;2022-09-09T07:54:11;30.30;52.20
24164;DHT22;12319;49.204;8.116;2022-09-09T07:56:38;29.30;55.70
24164;DHT22;12319;49.204;8.116;2022-09-09T07:59:04;28.10;56.70
24164;DHT22;12319;49.204;8.116;2022-09-09T08:01:34;27.00;57.10
24164;DHT22;12319;49.204;8.116;2022-09-09T08:04:05;26.00;57.70
24164;DHT22;12319;49.204;8.116;2022-09-09T08:06:35;25.10;58.90
24164;DHT22;12319;49.204;8.116;2022-09-09T08:09:01;24.40;59.60
24164;DHT22;12319;49.204;8.116;2022-09-09T08:11:28;24.10;60.80
24164;DHT22;12319;49.204;8.116;2022-09-09T08:13:55;24.80;62.20
24164;DHT22;12319;49.204;8.116;2022-09-09T08:16:26;25.10;61.50
24164;DHT22;12319;49.204;8.116;2022-09-09T08:18:53;26.80;62.20
24164;DHT22;12319;49.204;8.116;2022-09-09T08:21:23;28.10;60.40
24164;DHT22;12319;49.204;8.116;2022-09-09T08:23:51;29.40;58.90
24164;DHT22;12319;49.204;8.116;2022-09-09T08:26:18;29.40;57.30
24164;DHT22;12319;49.204;8.116;2022-09-09T08:28:48;29.20;56.10
24164;DHT22;12319;49.204;8.116;2022-09-09T08:31:18;28.70;54.60
24164;DHT22;12319;49.204;8.116;2022-09-09T08:33:44;28.50;56.10
24164;DHT22;12319;49.204;8.116;2022-09-09T08:36:15;28.90;56.50
24164;DHT22;12319;49.204;8.116;2022-09-09T08:38:42;29.70;56.70
24164;DHT22;12319;49.204;8.116;2022-09-09T08:47:37;34.40;49.40
24164;DHT22;12319;49.204;8.116;2022-09-09T08:53:02;36.60;48.60
24164;DHT22;12319;49.204;8.116;2022-09-09T08:55:51;37.40;45.80
24164;DHT22;12319;49.204;8.116;2022-09-09T08:58:23;37.40;42.30
24164;DHT22;12319;49.204;8.116;2022-09-09T09:01:05;36.90;43.50
24164;DHT22;12319;49.204;8.116;2022-09-09T09:07:06;33.60;42.60
24164;DHT22;12319;49.204;8.116;2022-09-09T09:09:39;31.70;44.80
24164;DHT22;12319;49.204;8.116;2022-09-09T09:12:19;30.00;46.70
24164;DHT22;12319;49.204;8.116;2022-09-09T09:14:47;28.50;49.10
24164;DHT22;12319;49.204;8.116;2022-09-09T09:17:16;27.20;49.90
24164;DHT22;12319;49.204;8.116;2022-09-09T09:19:43;26.10;51.10
24164;DHT22;12319;49.204;8.116;2022-09-09T09:25:18;24.40;54.50
24164;DHT22;12319;49.204;8.116;2022-09-09T09:28:03;23.70;56.80
24164;DHT22;12319;49.204;8.116;2022-09-09T09:30:42;23.40;58.20
24164;DHT22;12319;49.204;8.116;2022-09-09T09:33:50;23.20;58.30
24164;DHT22;12319;49.204;8.116;2022-09-09T09:36:16;23.10;59.80
24164;DHT22;12319;49.204;8.116;2022-09-09T09:38:56;23.10;58.60
24164;DHT22;12319;49.204;8.116;2022-09-09T09:41:49;23.00;60.30
24164;DHT22;12319;49.204;8.116;2022-09-09T09:44:29;23.30;62.50
24164;DHT22;12319;49.204;8.116;2022-09-09T09:47:08;23.30;61.50
24164;DHT22;12319;49.204;8.116;2022-09-09T09:49:36;23.40;61.40
24164;DHT22;12319;49.204;8.116;2022-09-09T09:52:03;23.60;60.90
24164;DHT22;12319;49.204;8.116;2022-09-09T09:54:32;23.50;61.40
24164;DHT22;12319;49.204;8.116;2022-09-09T09:57:12;23.50;61.50
24164;DHT22;12319;49.204;8.116;2022-09-09T09:59:38;23.60;63.00
24164;DHT22;12319;49.204;8.116;2022-09-09T10:04:39;23.30;61.80
24164;DHT22;12319;49.204;8.116;2022-09-09T10:07:21;23.20;61.50
24164;DHT22;12319;49.204;8.116;2022-09-09T10:09:53;23.00;62.30
24164;DHT22;12319;49.204;8.116;2022-09-09T10:18:09;22.50;62.50
24164;DHT22;12319;49.204;8.116;2022-09-09T10:20:54;22.40;63.00
24164;DHT22;12319;49.204;8.116;2022-09-09T10:23:29;22.40;63.10
24164;DHT22;12319;49.204;8.116;2022-09-09T10:31:45;22.00;64.10
24164;DHT22;12319;49.204;8.116;2022-09-09T10:37:37;22.10;65.40
24164;DHT22;12319;49.204;8.116;2022-09-09T10:40:22;22.20;65.10
24164;DHT22;12319;49.204;8.116;2022-09-09T10:42:53;22.40;64.90
24164;DHT22;12319;49.204;8.116;2022-09-09T10:45:32;22.40;64.30
24164;DHT22;12319;49.204;8.116;2022-09-09T10:50:52;22.50;64.50
24164;DHT22;12319;49.204;8.116;2022-09-09T10:53:37;22.70;64.00
24164;DHT22;12319;49.204;8.116;2022-09-09T10:56:10;23.20;63.30
24164;DHT22;12319;49.204;8.116;2022-09-09T11:01:37;23.40;62.70
24164;DHT22;12319;49.204;8.116;2022-09-09T11:04:17;23.50;62.40
24164;DHT22;12319;49.204;8.116;2022-09-09T11:06:49;23.50;62.10
24164;DHT22;12319;49.204;8.116;2022-09-09T11:09:21;23.60;61.60
24164;DHT22;12319;49.204;8.116;2022-09-09T11:11:55;23.60;61.60
24164;DHT22;12319;49.204;8.116;2022-09-09T11:14:44;23.90;61.40
24164;DHT22;12319;49.204;8.116;2022-09-09T11:17:15;23.60;58.50
24164;DHT22;12319;49.204;8.116;2022-09-09T11:19:43;23.60;60.10
24164;DHT22;12319;49.204;8.116;2022-09-09T11:24:47;23.70;59.20
24164;DHT22;12319;49.204;8.116;2022-09-09T11:27:20;23.50;59.50
24164;DHT22;12319;49.204;8.116;2022-09-09T11:30:20;23.70;60.00
24164;DHT22;12319;49.204;8.116;2022-09-09T11:38:26;22.90;59.50
24164;DHT22;12319;49.204;8.116;2022-09-09T11:40:58;23.50;61.50
24164;DHT22;12319;49.204;8.116;2022-09-09T11:43:31;22.60;61.40
24164;DHT22;12319;49.204;8.116;2022-09-09T11:46:00;22.60;62.30
24164;DHT22;12319;49.204;8.116;2022-09-09T11:48:40;22.60;62.40
24164;DHT22;12319;49.204;8.116;2022-09-09T11:51:13;22.70;62.30
24164;DHT22;12319;49.204;8.116;2022-09-09T11:53:59;22.60;62.50
24164;DHT22;12319;49.204;8.116;2022-09-09T11:56:32;22.60;62.70
24164;DHT22;12319;49.204;8.116;2022-09-09T11:59:16;22.60;63.20
24164;DHT22;12319;49.204;8.116;2022-09-09T12:01:45;22.70;63.20
24164;DHT22;12319;49.204;8.116;2022-09-09T12:10:33;23.50;62.20
24164;DHT22;12319;49.204;8.116;2022-09-09T12:12:37;23.50;61.90
24164;DHT22;12319;49.204;8.116;2022-09-09T12:17:44;23.50;61.90
24164;DHT22;12319;49.204;8.116;2022-09-09T12:26:40;23.40;62.20
24164;DHT22;12319;49.204;8.116;2022-09-09T12:32:16;23.10;62.40
24164;DHT22;12319;49.204;8.116;2022-09-09T12:34:55;22.80;62.70
24164;DHT22;12319;49.204;8.116;2022-09-09T12:37:32;22.60;63.20
24164;DHT22;12319;49.204;8.116;2022-09-09T12:40:00;22.30;63.70
24164;DHT22;12319;49.204;8.116;2022-09-09T12:42:29;22.00;63.80
24164;DHT22;12319;49.204;8.116;2022-09-09T12:44:59;21.80;64.10
24164;DHT22;12319;49.204;8.116;2022-09-09T12:47:51;21.40;65.00
24164;DHT22;12319;49.204;8.116;2022-09-09T12:50:24;21.10;65.10
24164;DHT22;12319;49.204;8.116;2022-09-09T12:53:11;20.80;64.70
24164;DHT22;12319;49.204;8.116;2022-09-09T12:55:59;20.70;64.70
24164;DHT22;12319;49.204;8.116;2022-09-09T12:58:25;20.60;66.00
24164;DHT22;12319;49.204;8.116;2022-09-09T13:00:55;20.60;65.60
24164;DHT22;12319;49.204;8.116;2022-09-09T13:03:22;20.60;65.80
24164;DHT22;12319;49.204;8.116;2022-09-09T13:05:48;20.80;66.10
24164;DHT22;12319;49.204;8.116;2022-09-09T13:08:15;21.00;65.70
24164;DHT22;12319;49.204;8.116;2022-09-09T13:13:23;21.50;65.70
24164;DHT22;12319;49.204;8.116;2022-09-09T13:16:00;21.70;65.60
24164;DHT22;12319;49.204;8.116;2022-09-09T13:18:40;21.90;65.80
24164;DHT22;12319;49.204;8.116;2022-09-09T13:21:06;22.10;66.20
24164;DHT22;12319;49.204;8.116;2022-09-09T13:23:35;22.60;65.60
24164;DHT22;12319;49.204;8.116;2022-09-09T13:26:04;23.10;65.70
24164;DHT22;12319;49.204;8.116;2022-09-09T13:28:32;23.70;65.00
24164;DHT22;12319;49.204;8.116;2022-09-09T13:31:28;24.20;64.20
24164;DHT22;12319;49.204;8.116;2022-09-09T13:33:54;24.60;63.00
24164;DHT22;12319;49.204;8.116;2022-09-09T13:36:31;24.70;62.60
24164;DHT22;12319;49.204;8.116;2022-09-09T13:38:59;24.40;62.30
24164;DHT22;12319;49.204;8.116;2022-09-09T13:41:34;24.40;62.30
24164;DHT22;12319;49.204;8.116;2022-09-09T13:44:01;24.50;61.40
24164;DHT22;12319;49.204;8.116;2022-09-09T13:46:36;24.50;60.70
24164;DHT22;12319;49.204;8.116;2022-09-09T13:51:41;24.80;58.40
24164;DHT22;12319;49.204;8.116;2022-09-09T13:54:12;24.50;57.50
24164;DHT22;12319;49.204;8.116;2022-09-09T13:56:39;24.20;58.60
24164;DHT22;12319;49.204;8.116;2022-09-09T13:59:09;24.30;59.80
24164;DHT22;12319;49.204;8.116;2022-09-09T14:01:36;23.90;59.60
24164;DHT22;12319;49.204;8.116;2022-09-09T14:04:03;24.10;59.10
24164;DHT22;12319;49.204;8.116;2022-09-09T14:06:29;24.40;58.50
24164;DHT22;12319;49.204;8.116;2022-09-09T14:08:55;24.70;58.50
24164;DHT22;12319;49.204;8.116;2022-09-09T14:11:21;24.80;58.80
24164;DHT22;12319;49.204;8.116;2022-09-09T14:13:48;24.80;58.10
24164;DHT22;12319;49.204;8.116;2022-09-09T14:16:16;24.50;56.10
24164;DHT22;12319;49.204;8.116;2022-09-09T14:18:43;24.10;57.60
24164;DHT22;12319;49.204;8.116;2022-09-09T14:21:09;23.80;58.20
24164;DHT22;12319;49.204;8.116;2022-09-09T14:23:35;23.50;59.00
24164;DHT22;12319;49.204;8.116;2022-09-09T14:26:00;23.30;58.80
24164;DHT22;12319;49.204;8.116;2022-09-09T14:28:26;23.40;59.90
24164;DHT22;12319;49.204;8.116;2022-09-09T14:30:55;24.10;60.90
24164;DHT22;12319;49.204;8.116;2022-09-09T14:33:20;22.70;59.90
24164;DHT22;12319;49.204;8.116;2022-09-09T14:35:46;23.50;61.00
24164;DHT22;12319;49.204;8.116;2022-09-09T14:38:12;22.50;61.20
24164;DHT22;12319;49.204;8.116;2022-09-09T14:40:38;23.40;62.10
24164;DHT22;12319;49.204;8.116;2022-09-09T14:43:05;23.00;62.10
24164;DHT22;12319;49.204;8.116;2022-09-09T14:45:31;22.30;61.40
24164;DHT22;12319;49.204;8.116;2022-09-09T14:47:56;22.20;61.60
24164;DHT22;12319;49.204;8.116;2022-09-09T14:50:22;22.20;62.20
24164;DHT22;12319;49.204;8.116;2022-09-09T14:52:48;22.20;61.60
24164;DHT22;12319;49.204;8.116;2022-09-09T14:55:15;22.30;61.30
24164;DHT22;12319;49.204;8.116;2022-09-09T14:57:41;22.40;61.10
24164;DHT22;12319;49.204;8.116;2022-09-09T15:00:07;22.50;60.80
24164;DHT22;12319;49.204;8.116;2022-09-09T15:02:34;22.60;60.70
24164;DHT22;12319;49.204;8.116;2022-09-09T15:04:59;23.50;61.00
24164;DHT22;12319;49.204;8.116;2022-09-09T15:07:25;22.80;60.20
24164;DHT22;12319;49.204;8.116;2022-09-09T15:09:51;22.90;60.30
24164;DHT22;12319;49.204;8.116;2022-09-09T15:12:18;23.00;60.40
24164;DHT22;12319;49.204;8.116;2022-09-09T15:14:44;24.20;61.10
24164;DHT22;12319;49.204;8.116;2022-09-09T15:17:10;23.10;59.80
24164;DHT22;12319;49.204;8.116;2022-09-09T15:19:36;23.10;59.60
24164;DHT22;12319;49.204;8.116;2022-09-09T15:22:03;23.00;59.70
24164;DHT22;12319;49.204;8.116;2022-09-09T15:24:30;22.90;60.10
24164;DHT22;12319;49.204;8.116;2022-09-09T15:26:55;22.70;59.60
24164;DHT22;12319;49.204;8.116;2022-09-09T15:29:23;22.70;59.90
24164;DHT22;12319;49.204;8.116;2022-09-09T15:31:48;22.60;59.90
24164;DHT22;12319;49.204;8.116;2022-09-09T15:34:14;22.70;60.30
24164;DHT22;12319;49.204;8.116;2022-09-09T15:36:44;22.30;60.20
24164;DHT22;12319;49.204;8.116;2022-09-09T15:39:13;22.20;60.30
24164;DHT22;12319;49.204;8.116;2022-09-09T15:41:42;22.10;60.60
24164;DHT22;12319;49.204;8.116;2022-09-09T15:44:08;22.00;60.90
24164;DHT22;12319;49.204;8.116;2022-09-09T15:46:44;22.00;61.10
24164;DHT22;12319;49.204;8.116;2022-09-09T15:49:18;21.90;61.20
24164;DHT22;12319;49.204;8.116;2022-09-09T15:51:46;21.80;61.40
24164;DHT22;12319;49.204;8.116;2022-09-09T15:54:14;21.80;61.40
24164;DHT22;12319;49.204;8.116;2022-09-09T15:56:42;21.60;61.00
24164;DHT22;12319;49.204;8.116;2022-09-09T15:59:08;21.70;61.30
24164;DHT22;12319;49.204;8.116;2022-09-09T16:01:34;21.60;61.40
24164;DHT22;12319;49.204;8.116;2022-09-09T16:04:00;21.60;61.70
24164;DHT22;12319;49.204;8.116;2022-09-09T16:06:27;21.50;62.00
24164;DHT22;12319;49.204;8.116;2022-09-09T16:08:54;21.50;62.20
24164;DHT22;12319;49.204;8.116;2022-09-09T16:11:25;21.40;62.50
24164;DHT22;12319;49.204;8.116;2022-09-09T16:13:52;21.30;62.60
24164;DHT22;12319;49.204;8.116;2022-09-09T16:16:21;21.30;62.70
24164;DHT22;12319;49.204;8.116;2022-09-09T16:18:49;21.20;62.80
24164;DHT22;12319;49.204;8.116;2022-09-09T16:21:20;21.20;63.10
24164;DHT22;12319;49.204;8.116;2022-09-09T16:23:46;21.10;63.30
24164;DHT22;12319;49.204;8.116;2022-09-09T16:26:13;21.10;63.40
24164;DHT22;12319;49.204;8.116;2022-09-09T16:28:39;21.30;64.30
24164;DHT22;12319;49.204;8.116;2022-09-09T16:31:06;21.00;64.00
24164;DHT22;12319;49.204;8.116;2022-09-09T16:33:32;21.00;64.00
24164;DHT22;12319;49.204;8.116;2022-09-09T16:35:58;21.00;64.00
24164;DHT22;12319;49.204;8.116;2022-09-09T16:38:29;20.90;64.30
24164;DHT22;12319;49.204;8.116;2022-09-09T16:40:59;20.90;64.30
24164;DHT22;12319;49.204;8.116;2022-09-09T16:43:25;21.20;65.00
24164;DHT22;12319;49.204;8.116;2022-09-09T16:45:50;20.90;64.90
24164;DHT22;12319;49.204;8.116;2022-09-09T16:48:15;20.90;64.70
24164;DHT22;12319;49.204;8.116;2022-09-09T16:50:41;20.90;64.50
24164;DHT22;12319;49.204;8.116;2022-09-09T16:53:07;20.80;63.80
24164;DHT22;12319;49.204;8.116;2022-09-09T16:55:38;20.80;64.10
24164;DHT22;12319;49.204;8.116;2022-09-09T16:58:04;20.70;64.00
24164;DHT22;12319;49.204;8.116;2022-09-09T17:00:29;20.70;64.10
24164;DHT22;12319;49.204;8.116;2022-09-09T17:02:55;20.60;64.20
24164;DHT22;12319;49.204;8.116;2022-09-09T17:05:20;20.50;64.10
24164;DHT22;12319;49.204;8.116;2022-09-09T17:07:46;20.50;64.10
24164;DHT22;12319;49.204;8.116;2022-09-09T17:10:11;20.30;64.10
24164;DHT22;12319;49.204;8.116;2022-09-09T17:12:37;20.30;64.40
24164;DHT22;12319;49.204;8.116;2022-09-09T17:15:02;20.20;64.60
24164;DHT22;12319;49.204;8.116;2022-09-09T17:17:29;20.20;64.70
24164;DHT22;12319;49.204;8.116;2022-09-09T17:19:54;20.10;64.90
24164;DHT22;12319;49.204;8.116;2022-09-09T17:22:20;20.10;65.10
24164;DHT22;12319;49.204;8.116;2022-09-09T17:24:46;19.90;65.30
24164;DHT22;12319;49.204;8.116;2022-09-09T17:27:12;19.90;65.50
24164;DHT22;12319;49.204;8.116;2022-09-09T17:29:38;19.80;66.00
24164;DHT22;12319;49.204;8.116;2022-09-09T17:32:05;19.80;66.50
24164;DHT22;12319;49.204;8.116;2022-09-09T17:34:33;19.70;66.90
24164;DHT22;12319;49.204;8.116;2022-09-09T17:36:58;19.60;67.10
24164;DHT22;12319;49.204;8.116;2022-09-09T17:39:24;19.50;67.40
24164;DHT22;12319;49.204;8.116;2022-09-09T17:41:49;19.50;67.80
24164;DHT22;12319;49.204;8.116;2022-09-09T17:44:15;19.40;68.10
24164;DHT22;12319;49.204;8.116;2022-09-09T17:46:42;19.30;68.40
24164;DHT22;12319;49.204;8.116;2022-09-09T17:49:13;19.30;68.70
24164;DHT22;12319;49.204;8.116;2022-09-09T17:51:40;19.20;69.00
24164;DHT22;12319;49.204;8.116;2022-09-09T17:54:15;19.10;69.10
24164;DHT22;12319;49.204;8.116;2022-09-09T17:56:41;19.10;69.70